sensor_id;sensor_type;location;lat;lon;timestamp;P1;durP1;ratioP1;P2;durP2;ratioP2
54271;SDS011;40184;53.362;5.216;2023-04-09T00:00:38;58.88;;;41.53;;
54271;SDS011;40184;53.362;5.216;2023-04-09T00:03:04;48.00;;;36.63;;
54271;SDS011;40184;53.362;5.216;2023-04-09T00:05:29;44.00;;;35.30;;
54271;SDS011;40184;53.362;5.216;2023-04-09T00:07:55;45.72;;;35.03;;
54271;SDS011;40184;53.362;5.216;2023-04-09T00:10:21;46.92;;;36.58;;
54271;SDS011;40184;53.362;5.216;2023-04-09T00:12:47;45.45;;;36.67;;
54271;SDS011;40184;53.362;5.216;2023-04-09T00:15:12;49.00;;;39.45;;
54271;SDS011;40184;53.362;5.216;2023-04-09T00:17:38;46.17;;;37.28;;
54271;SDS011;40184;53.362;5.216;2023-04-09T00:20:04;61.00;;;42.55;;
54271;SDS011;40184;53.362;5.216;2023-04-09T00:22:31;51.85;;;39.20;;
54271;SDS011;40184;53.362;5.216;2023-04-09T00:24:57;44.53;;;37.60;;
54271;SDS011;40184;53.362;5.216;2023-04-09T00:27:23;50.58;;;37.53;;
54271;SDS011;40184;53.362;5.216;2023-04-09T00:29:48;44.97;;;37.40;;
54271;SDS011;40184;53.362;5.216;2023-04-09T00:32:14;49.13;;;38.22;;
54271;SDS011;40184;53.362;5.216;2023-04-09T00:34:40;52.08;;;38.80;;
54271;SDS011;40184;53.362;5.216;2023-04-09T00:37:06;59.90;;;40.47;;
54271;SDS011;40184;53.362;5.216;2023-04-09T00:39:31;46.25;;;36.60;;
54271;SDS011;40184;53.362;5.216;2023-04-09T00:41:57;49.28;;;38.22;;
54271;SDS011;40184;53.362;5.216;2023-04-09T00:44:26;50.13;;;36.92;;
54271;SDS011;40184;53.362;5.216;2023-04-09T00:46:52;49.00;;;38.42;;
54271;SDS011;40184;53.362;5.216;2023-04-09T00:49:18;50.08;;;39.47;;
54271;SDS011;40184;53.362;5.216;2023-04-09T00:51:45;53.20;;;39.85;;
54271;SDS011;40184;53.362;5.216;2023-04-09T00:54:11;56.40;;;41.55;;
54271;SDS011;40184;53.362;5.216;2023-04-09T00:56:37;53.65;;;39.47;;
54271;SDS011;40184;53.362;5.216;2023-04-09T00:59:03;53.30;;;42.00;;
54271;SDS011;40184;53.362;5.216;2023-04-09T01:01:29;58.50;;;42.95;;
54271;SDS011;40184;53.362;5.216;2023-04-09T01:03:55;55.05;;;41.47;;
54271;SDS011;40184;53.362;5.216;2023-04-09T01:09:08;58.10;;;45.42;;
54271;SDS011;40184;53.362;5.216;2023-04-09T01:17:48;62.78;;;47.15;;
54271;SDS011;40184;53.362;5.216;2023-04-09T01:20:39;60.60;;;44.55;;
54271;SDS011;40184;53.362;5.216;2023-04-09T01:23:10;67.90;;;46.13;;
54271;SDS011;40184;53.362;5.216;2023-04-09T01:28:53;63.38;;;44.90;;
54271;SDS011;40184;53.362;5.216;2023-04-09T01:31:24;72.13;;;47.38;;
54271;SDS011;40184;53.362;5.216;2023-04-09T01:33:53;63.30;;;46.85;;
54271;SDS011;40184;53.362;5.216;2023-04-09T01:36:20;64.78;;;46.80;;
54271;SDS011;40184;53.362;5.216;2023-04-09T01:38:47;64.28;;;46.47;;
54271;SDS011;40184;53.362;5.216;2023-04-09T01:41:16;65.63;;;47.88;;
54271;SDS011;40184;53.362;5.216;2023-04-09T01:43:45;66.20;;;49.28;;
54271;SDS011;40184;53.362;5.216;2023-04-09T01:46:16;62.97;;;47.05;;
54271;SDS011;40184;53.362;5.216;2023-04-09T01:48:43;61.33;;;46.00;;
54271;SDS011;40184;53.362;5.216;2023-04-09T01:51:10;65.90;;;47.47;;
54271;SDS011;40184;53.362;5.216;2023-04-09T01:53:40;61.38;;;47.58;;
54271;SDS011;40184;53.362;5.216;2023-04-09T01:56:07;62.83;;;47.90;;
54271;SDS011;40184;53.362;5.216;2023-04-09T01:58:33;65.90;;;48.00;;
54271;SDS011;40184;53.362;5.216;2023-04-09T02:01:04;66.18;;;50.40;;
54271;SDS011;40184;53.362;5.216;2023-04-09T02:03:40;63.55;;;47.95;;
54271;SDS011;40184;53.362;5.216;2023-04-09T02:06:13;63.80;;;48.72;;
54271;SDS011;40184;53.362;5.216;2023-04-09T02:08:46;71.10;;;50.80;;
54271;SDS011;40184;53.362;5.216;2023-04-09T02:11:14;67.63;;;50.17;;
54271;SDS011;40184;53.362;5.216;2023-04-09T02:13:40;71.82;;;49.88;;
54271;SDS011;40184;53.362;5.216;2023-04-09T02:16:07;70.32;;;50.67;;
54271;SDS011;40184;53.362;5.216;2023-04-09T02:18:35;70.50;;;51.88;;
54271;SDS011;40184;53.362;5.216;2023-04-09T02:21:02;68.53;;;48.75;;
54271;SDS011;40184;53.362;5.216;2023-04-09T02:23:29;63.92;;;48.17;;
54271;SDS011;40184;53.362;5.216;2023-04-09T02:25:57;67.18;;;51.10;;
54271;SDS011;40184;53.362;5.216;2023-04-09T02:28:23;62.83;;;47.60;;
54271;SDS011;40184;53.362;5.216;2023-04-09T02:30:48;56.05;;;44.75;;
54271;SDS011;40184;53.362;5.216;2023-04-09T02:33:14;63.70;;;47.15;;
54271;SDS011;40184;53.362;5.216;2023-04-09T02:35:40;61.35;;;47.38;;
54271;SDS011;40184;53.362;5.216;2023-04-09T02:38:06;54.58;;;43.60;;
54271;SDS011;40184;53.362;5.216;2023-04-09T02:40:37;60.65;;;45.35;;
54271;SDS011;40184;53.362;5.216;2023-04-09T02:43:04;60.15;;;43.83;;
54271;SDS011;40184;53.362;5.216;2023-04-09T02:45:29;62.35;;;46.92;;
54271;SDS011;40184;53.362;5.216;2023-04-09T02:47:55;58.88;;;48.78;;
54271;SDS011;40184;53.362;5.216;2023-04-09T02:50:21;58.60;;;45.90;;
54271;SDS011;40184;53.362;5.216;2023-04-09T02:52:46;56.95;;;45.03;;
54271;SDS011;40184;53.362;5.216;2023-04-09T02:55:12;57.53;;;45.40;;
54271;SDS011;40184;53.362;5.216;2023-04-09T02:57:38;57.72;;;45.92;;
54271;SDS011;40184;53.362;5.216;2023-04-09T03:00:05;57.25;;;44.25;;
54271;SDS011;40184;53.362;5.216;2023-04-09T03:02:31;60.88;;;46.40;;
54271;SDS011;40184;53.362;5.216;2023-04-09T03:04:56;55.00;;;43.75;;
54271;SDS011;40184;53.362;5.216;2023-04-09T03:07:22;62.55;;;45.28;;
54271;SDS011;40184;53.362;5.216;2023-04-09T03:09:48;62.60;;;49.17;;
54271;SDS011;40184;53.362;5.216;2023-04-09T03:12:13;56.33;;;45.67;;
54271;SDS011;40184;53.362;5.216;2023-04-09T03:14:39;58.58;;;46.95;;
54271;SDS011;40184;53.362;5.216;2023-04-09T03:17:05;60.28;;;49.03;;
54271;SDS011;40184;53.362;5.216;2023-04-09T03:19:30;61.30;;;46.13;;
54271;SDS011;40184;53.362;5.216;2023-04-09T03:21:56;62.35;;;47.83;;
54271;SDS011;40184;53.362;5.216;2023-04-09T03:24:21;58.60;;;48.10;;
54271;SDS011;40184;53.362;5.216;2023-04-09T03:26:47;60.70;;;47.90;;
54271;SDS011;40184;53.362;5.216;2023-04-09T03:29:13;59.90;;;47.53;;
54271;SDS011;40184;53.362;5.216;2023-04-09T03:31:38;65.05;;;48.97;;
54271;SDS011;40184;53.362;5.216;2023-04-09T03:34:04;64.38;;;49.38;;
54271;SDS011;40184;53.362;5.216;2023-04-09T03:36:30;68.03;;;49.78;;
54271;SDS011;40184;53.362;5.216;2023-04-09T03:38:56;68.50;;;49.40;;
54271;SDS011;40184;53.362;5.216;2023-04-09T03:41:22;57.22;;;46.10;;
54271;SDS011;40184;53.362;5.216;2023-04-09T03:43:48;64.32;;;48.60;;
54271;SDS011;40184;53.362;5.216;2023-04-09T03:46:14;58.95;;;45.85;;
54271;SDS011;40184;53.362;5.216;2023-04-09T03:48:40;61.72;;;46.53;;
54271;SDS011;40184;53.362;5.216;2023-04-09T03:51:09;55.72;;;44.92;;
54271;SDS011;40184;53.362;5.216;2023-04-09T03:53:39;53.88;;;42.33;;
54271;SDS011;40184;53.362;5.216;2023-04-09T03:56:06;54.42;;;42.13;;
54271;SDS011;40184;53.362;5.216;2023-04-09T03:58:32;54.67;;;41.85;;
54271;SDS011;40184;53.362;5.216;2023-04-09T04:00:58;62.25;;;47.17;;
54271;SDS011;40184;53.362;5.216;2023-04-09T04:03:24;57.92;;;43.42;;
54271;SDS011;40184;53.362;5.216;2023-04-09T04:05:50;65.65;;;45.83;;
54271;SDS011;40184;53.362;5.216;2023-04-09T04:08:15;57.30;;;44.67;;
54271;SDS011;40184;53.362;5.216;2023-04-09T04:10:41;53.53;;;41.55;;
54271;SDS011;40184;53.362;5.216;2023-04-09T04:13:07;56.88;;;42.53;;
54271;SDS011;40184;53.362;5.216;2023-04-09T04:15:38;53.45;;;41.53;;
54271;SDS011;40184;53.362;5.216;2023-04-09T04:18:05;54.53;;;41.58;;
54271;SDS011;40184;53.362;5.216;2023-04-09T04:20:34;55.45;;;38.90;;
54271;SDS011;40184;53.362;5.216;2023-04-09T04:23:00;49.45;;;38.90;;
54271;SDS011;40184;53.362;5.216;2023-04-09T04:25:26;54.25;;;43.42;;
54271;SDS011;40184;53.362;5.216;2023-04-09T04:27:52;47.65;;;36.65;;
54271;SDS011;40184;53.362;5.216;2023-04-09T04:30:19;46.03;;;36.13;;
54271;SDS011;40184;53.362;5.216;2023-04-09T04:32:46;50.10;;;38.67;;
54271;SDS011;40184;53.362;5.216;2023-04-09T04:35:12;52.83;;;38.15;;
54271;SDS011;40184;53.362;5.216;2023-04-09T04:37:37;47.50;;;37.72;;
54271;SDS011;40184;53.362;5.216;2023-04-09T04:40:04;53.22;;;39.40;;
54271;SDS011;40184;53.362;5.216;2023-04-09T04:42:31;53.70;;;40.55;;
54271;SDS011;40184;53.362;5.216;2023-04-09T04:44:56;59.88;;;42.40;;
54271;SDS011;40184;53.362;5.216;2023-04-09T04:47:22;56.38;;;41.88;;
54271;SDS011;40184;53.362;5.216;2023-04-09T04:49:48;59.25;;;43.30;;
54271;SDS011;40184;53.362;5.216;2023-04-09T04:52:13;59.70;;;42.33;;
54271;SDS011;40184;53.362;5.216;2023-04-09T04:54:39;55.20;;;40.95;;
54271;SDS011;40184;53.362;5.216;2023-04-09T04:57:04;60.97;;;42.13;;
54271;SDS011;40184;53.362;5.216;2023-04-09T04:59:30;61.88;;;45.13;;
54271;SDS011;40184;53.362;5.216;2023-04-09T05:01:56;64.07;;;45.63;;
54271;SDS011;40184;53.362;5.216;2023-04-09T05:04:21;68.60;;;44.53;;
54271;SDS011;40184;53.362;5.216;2023-04-09T05:06:47;64.43;;;45.95;;
54271;SDS011;40184;53.362;5.216;2023-04-09T05:09:13;61.67;;;44.72;;
54271;SDS011;40184;53.362;5.216;2023-04-09T05:11:38;68.00;;;46.78;;
54271;SDS011;40184;53.362;5.216;2023-04-09T05:14:04;65.25;;;48.17;;
54271;SDS011;40184;53.362;5.216;2023-04-09T05:16:30;71.30;;;49.55;;
54271;SDS011;40184;53.362;5.216;2023-04-09T05:18:56;71.00;;;50.10;;
54271;SDS011;40184;53.362;5.216;2023-04-09T05:21:22;72.60;;;49.50;;
54271;SDS011;40184;53.362;5.216;2023-04-09T05:23:47;71.38;;;50.00;;
54271;SDS011;40184;53.362;5.216;2023-04-09T05:26:13;69.10;;;49.08;;
54271;SDS011;40184;53.362;5.216;2023-04-09T05:28:38;69.40;;;48.00;;
54271;SDS011;40184;53.362;5.216;2023-04-09T05:31:04;68.60;;;48.25;;
54271;SDS011;40184;53.362;5.216;2023-04-09T05:33:36;80.13;;;51.70;;
54271;SDS011;40184;53.362;5.216;2023-04-09T05:36:05;76.80;;;51.35;;
54271;SDS011;40184;53.362;5.216;2023-04-09T05:38:31;71.60;;;51.58;;
54271;SDS011;40184;53.362;5.216;2023-04-09T05:40:57;78.72;;;52.42;;
54271;SDS011;40184;53.362;5.216;2023-04-09T05:43:23;79.10;;;53.38;;
54271;SDS011;40184;53.362;5.216;2023-04-09T05:45:49;81.65;;;53.45;;
54271;SDS011;40184;53.362;5.216;2023-04-09T05:48:15;84.10;;;53.92;;
54271;SDS011;40184;53.362;5.216;2023-04-09T05:50:47;84.63;;;56.20;;
54271;SDS011;40184;53.362;5.216;2023-04-09T05:53:16;83.22;;;54.78;;
54271;SDS011;40184;53.362;5.216;2023-04-09T05:55:43;84.93;;;53.35;;
54271;SDS011;40184;53.362;5.216;2023-04-09T05:58:09;87.65;;;56.47;;
54271;SDS011;40184;53.362;5.216;2023-04-09T06:00:35;84.72;;;53.38;;
54271;SDS011;40184;53.362;5.216;2023-04-09T06:03:01;78.05;;;49.42;;
54271;SDS011;40184;53.362;5.216;2023-04-09T06:05:27;77.82;;;51.35;;
54271;SDS011;40184;53.362;5.216;2023-04-09T06:07:52;78.45;;;52.03;;
54271;SDS011;40184;53.362;5.216;2023-04-09T06:10:18;78.32;;;48.50;;
54271;SDS011;40184;53.362;5.216;2023-04-09T06:12:44;77.07;;;51.20;;
54271;SDS011;40184;53.362;5.216;2023-04-09T06:15:10;78.88;;;49.92;;
54271;SDS011;40184;53.362;5.216;2023-04-09T06:17:35;75.35;;;50.03;;
54271;SDS011;40184;53.362;5.216;2023-04-09T06:20:01;78.45;;;48.58;;
54271;SDS011;40184;53.362;5.216;2023-04-09T06:22:27;82.80;;;51.97;;
54271;SDS011;40184;53.362;5.216;2023-04-09T06:24:53;86.18;;;54.05;;
54271;SDS011;40184;53.362;5.216;2023-04-09T06:27:19;82.53;;;51.08;;
54271;SDS011;40184;53.362;5.216;2023-04-09T06:29:46;87.28;;;53.58;;
54271;SDS011;40184;53.362;5.216;2023-04-09T06:32:11;80.95;;;51.63;;
54271;SDS011;40184;53.362;5.216;2023-04-09T06:34:37;83.97;;;52.90;;
54271;SDS011;40184;53.362;5.216;2023-04-09T06:37:03;77.50;;;51.45;;
54271;SDS011;40184;53.362;5.216;2023-04-09T06:39:29;85.63;;;52.58;;
54271;SDS011;40184;53.362;5.216;2023-04-09T06:41:55;73.80;;;48.22;;
54271;SDS011;40184;53.362;5.216;2023-04-09T06:44:20;84.15;;;51.63;;
54271;SDS011;40184;53.362;5.216;2023-04-09T06:46:48;78.15;;;49.03;;
54271;SDS011;40184;53.362;5.216;2023-04-09T06:49:13;78.00;;;48.00;;
54271;SDS011;40184;53.362;5.216;2023-04-09T06:51:39;79.05;;;48.67;;
54271;SDS011;40184;53.362;5.216;2023-04-09T06:54:05;76.20;;;50.40;;
54271;SDS011;40184;53.362;5.216;2023-04-09T06:56:32;80.65;;;49.75;;
54271;SDS011;40184;53.362;5.216;2023-04-09T06:58:58;83.32;;;52.10;;
54271;SDS011;40184;53.362;5.216;2023-04-09T07:01:23;79.88;;;49.30;;
54271;SDS011;40184;53.362;5.216;2023-04-09T07:03:50;77.10;;;50.67;;
54271;SDS011;40184;53.362;5.216;2023-04-09T07:06:16;78.00;;;51.28;;
54271;SDS011;40184;53.362;5.216;2023-04-09T07:08:42;77.85;;;50.33;;
54271;SDS011;40184;53.362;5.216;2023-04-09T07:11:07;78.13;;;49.78;;
54271;SDS011;40184;53.362;5.216;2023-04-09T07:13:33;78.53;;;49.42;;
54271;SDS011;40184;53.362;5.216;2023-04-09T07:15:58;75.80;;;49.03;;
54271;SDS011;40184;53.362;5.216;2023-04-09T07:18:24;69.22;;;47.22;;
54271;SDS011;40184;53.362;5.216;2023-04-09T07:20:50;65.53;;;43.13;;
54271;SDS011;40184;53.362;5.216;2023-04-09T07:23:16;67.82;;;45.47;;
54271;SDS011;40184;53.362;5.216;2023-04-09T07:25:42;65.35;;;43.47;;
54271;SDS011;40184;53.362;5.216;2023-04-09T07:28:08;67.78;;;44.63;;
54271;SDS011;40184;53.362;5.216;2023-04-09T07:30:33;70.00;;;46.60;;
54271;SDS011;40184;53.362;5.216;2023-04-09T07:32:59;68.35;;;45.33;;
54271;SDS011;40184;53.362;5.216;2023-04-09T07:35:25;68.55;;;44.72;;
54271;SDS011;40184;53.362;5.216;2023-04-09T07:37:50;70.40;;;45.03;;
54271;SDS011;40184;53.362;5.216;2023-04-09T07:40:16;68.32;;;45.67;;
54271;SDS011;40184;53.362;5.216;2023-04-09T07:42:42;67.95;;;45.17;;
54271;SDS011;40184;53.362;5.216;2023-04-09T07:45:07;59.30;;;40.88;;
54271;SDS011;40184;53.362;5.216;2023-04-09T07:47:33;59.53;;;38.60;;
54271;SDS011;40184;53.362;5.216;2023-04-09T07:49:59;60.08;;;39.85;;
54271;SDS011;40184;53.362;5.216;2023-04-09T07:52:25;57.67;;;38.50;;
54271;SDS011;40184;53.362;5.216;2023-04-09T07:54:51;50.35;;;36.35;;
54271;SDS011;40184;53.362;5.216;2023-04-09T07:57:16;48.08;;;32.03;;
54271;SDS011;40184;53.362;5.216;2023-04-09T07:59:42;46.28;;;31.25;;
54271;SDS011;40184;53.362;5.216;2023-04-09T08:02:08;41.75;;;31.08;;
54271;SDS011;40184;53.362;5.216;2023-04-09T08:04:33;42.10;;;29.42;;
54271;SDS011;40184;53.362;5.216;2023-04-09T08:06:59;40.78;;;28.20;;
54271;SDS011;40184;53.362;5.216;2023-04-09T08:09:25;46.15;;;29.90;;
54271;SDS011;40184;53.362;5.216;2023-04-09T08:11:51;40.53;;;28.50;;
54271;SDS011;40184;53.362;5.216;2023-04-09T08:14:17;43.92;;;28.90;;
54271;SDS011;40184;53.362;5.216;2023-04-09T08:16:43;43.65;;;29.10;;
54271;SDS011;40184;53.362;5.216;2023-04-09T08:19:11;44.28;;;29.40;;
54271;SDS011;40184;53.362;5.216;2023-04-09T08:21:39;40.05;;;28.85;;
54271;SDS011;40184;53.362;5.216;2023-04-09T08:24:08;40.65;;;29.25;;
54271;SDS011;40184;53.362;5.216;2023-04-09T08:26:39;39.47;;;28.77;;
54271;SDS011;40184;53.362;5.216;2023-04-09T08:29:06;41.38;;;28.40;;
54271;SDS011;40184;53.362;5.216;2023-04-09T08:31:32;38.22;;;28.40;;
54271;SDS011;40184;53.362;5.216;2023-04-09T08:33:58;38.55;;;27.58;;
54271;SDS011;40184;53.362;5.216;2023-04-09T08:36:24;44.92;;;29.90;;
54271;SDS011;40184;53.362;5.216;2023-04-09T08:38:53;38.63;;;26.45;;
54271;SDS011;40184;53.362;5.216;2023-04-09T08:41:24;45.17;;;31.58;;
54271;SDS011;40184;53.362;5.216;2023-04-09T08:43:51;49.88;;;35.58;;
54271;SDS011;40184;53.362;5.216;2023-04-09T08:46:20;44.72;;;32.88;;
54271;SDS011;40184;53.362;5.216;2023-04-09T08:48:47;46.00;;;34.08;;
54271;SDS011;40184;53.362;5.216;2023-04-09T08:51:21;48.72;;;34.47;;
54271;SDS011;40184;53.362;5.216;2023-04-09T08:53:55;43.78;;;32.13;;
54271;SDS011;40184;53.362;5.216;2023-04-09T08:56:24;42.83;;;30.48;;
54271;SDS011;40184;53.362;5.216;2023-04-09T08:58:50;39.97;;;30.95;;
54271;SDS011;40184;53.362;5.216;2023-04-09T09:01:35;43.78;;;30.83;;
54271;SDS011;40184;53.362;5.216;2023-04-09T09:04:01;39.08;;;29.83;;
54271;SDS011;40184;53.362;5.216;2023-04-09T09:06:30;40.90;;;29.98;;
54271;SDS011;40184;53.362;5.216;2023-04-09T09:09:07;46.38;;;31.35;;
54271;SDS011;40184;53.362;5.216;2023-04-09T09:11:38;47.60;;;28.65;;
54271;SDS011;40184;53.362;5.216;2023-04-09T09:14:09;36.37;;;28.13;;
54271;SDS011;40184;53.362;5.216;2023-04-09T09:16:37;47.55;;;32.08;;
54271;SDS011;40184;53.362;5.216;2023-04-09T09:19:07;40.42;;;30.05;;
54271;SDS011;40184;53.362;5.216;2023-04-09T09:21:34;42.30;;;29.27;;
54271;SDS011;40184;53.362;5.216;2023-04-09T09:24:01;38.42;;;27.48;;
54271;SDS011;40184;53.362;5.216;2023-04-09T09:26:40;44.30;;;28.42;;
54271;SDS011;40184;53.362;5.216;2023-04-09T09:29:06;39.05;;;28.50;;
54271;SDS011;40184;53.362;5.216;2023-04-09T09:31:32;36.47;;;28.40;;
54271;SDS011;40184;53.362;5.216;2023-04-09T09:34:17;36.00;;;27.10;;
54271;SDS011;40184;53.362;5.216;2023-04-09T09:36:45;37.17;;;27.55;;
54271;SDS011;40184;53.362;5.216;2023-04-09T09:39:12;34.60;;;27.50;;
54271;SDS011;40184;53.362;5.216;2023-04-09T09:41:39;36.20;;;28.33;;
54271;SDS011;40184;53.362;5.216;2023-04-09T09:44:06;37.83;;;27.92;;
54271;SDS011;40184;53.362;5.216;2023-04-09T09:46:33;36.63;;;28.70;;
54271;SDS011;40184;53.362;5.216;2023-04-09T09:49:04;39.08;;;28.70;;
54271;SDS011;40184;53.362;5.216;2023-04-09T09:51:31;40.55;;;28.30;;
54271;SDS011;40184;53.362;5.216;2023-04-09T09:54:01;38.00;;;27.30;;
54271;SDS011;40184;53.362;5.216;2023-04-09T09:56:31;41.75;;;28.77;;
54271;SDS011;40184;53.362;5.216;2023-04-09T10:01:28;41.72;;;28.83;;
54271;SDS011;40184;53.362;5.216;2023-04-09T10:03:55;46.05;;;29.65;;
54271;SDS011;40184;53.362;5.216;2023-04-09T10:06:24;43.50;;;30.88;;
54271;SDS011;40184;53.362;5.216;2023-04-09T10:08:51;46.45;;;31.70;;
54271;SDS011;40184;53.362;5.216;2023-04-09T10:11:20;46.97;;;32.60;;
54271;SDS011;40184;53.362;5.216;2023-04-09T10:14:05;45.65;;;32.25;;
54271;SDS011;40184;53.362;5.216;2023-04-09T10:16:31;47.38;;;32.03;;
54271;SDS011;40184;53.362;5.216;2023-04-09T10:18:57;42.17;;;29.98;;
54271;SDS011;40184;53.362;5.216;2023-04-09T10:23:52;41.25;;;30.38;;
54271;SDS011;40184;53.362;5.216;2023-04-09T10:26:19;45.65;;;33.05;;
54271;SDS011;40184;53.362;5.216;2023-04-09T10:28:46;50.67;;;34.10;;
54271;SDS011;40184;53.362;5.216;2023-04-09T10:31:26;52.42;;;37.22;;
54271;SDS011;40184;53.362;5.216;2023-04-09T10:33:52;42.17;;;31.42;;
54271;SDS011;40184;53.362;5.216;2023-04-09T10:36:18;45.90;;;33.55;;
54271;SDS011;40184;53.362;5.216;2023-04-09T10:38:46;44.95;;;33.42;;
54271;SDS011;40184;53.362;5.216;2023-04-09T10:41:13;39.83;;;29.75;;
54271;SDS011;40184;53.362;5.216;2023-04-09T10:43:47;42.70;;;31.90;;
54271;SDS011;40184;53.362;5.216;2023-04-09T10:46:29;39.97;;;30.13;;
54271;SDS011;40184;53.362;5.216;2023-04-09T10:49:11;45.97;;;32.17;;
54271;SDS011;40184;53.362;5.216;2023-04-09T10:51:41;42.33;;;32.10;;
54271;SDS011;40184;53.362;5.216;2023-04-09T10:57:41;47.30;;;32.78;;
54271;SDS011;40184;53.362;5.216;2023-04-09T10:59:49;49.05;;;37.75;;
54271;SDS011;40184;53.362;5.216;2023-04-09T11:07:35;51.90;;;40.30;;
54271;SDS011;40184;53.362;5.216;2023-04-09T11:10:04;61.55;;;40.25;;
54271;SDS011;40184;53.362;5.216;2023-04-09T11:12:32;49.70;;;35.08;;
54271;SDS011;40184;53.362;5.216;2023-04-09T11:14:57;46.38;;;32.97;;
54271;SDS011;40184;53.362;5.216;2023-04-09T11:17:23;40.47;;;30.27;;
54271;SDS011;40184;53.362;5.216;2023-04-09T11:19:49;43.53;;;31.13;;
54271;SDS011;40184;53.362;5.216;2023-04-09T11:22:15;43.78;;;32.97;;
54271;SDS011;40184;53.362;5.216;2023-04-09T11:24:41;53.58;;;36.85;;
54271;SDS011;40184;53.362;5.216;2023-04-09T11:27:07;52.15;;;35.20;;
54271;SDS011;40184;53.362;5.216;2023-04-09T11:29:33;55.20;;;37.95;;
54271;SDS011;40184;53.362;5.216;2023-04-09T11:32:00;51.60;;;35.83;;
54271;SDS011;40184;53.362;5.216;2023-04-09T11:34:29;52.53;;;36.22;;
54271;SDS011;40184;53.362;5.216;2023-04-09T11:36:55;53.15;;;35.97;;
54271;SDS011;40184;53.362;5.216;2023-04-09T11:39:23;51.50;;;35.88;;
54271;SDS011;40184;53.362;5.216;2023-04-09T11:41:50;49.00;;;34.30;;
54271;SDS011;40184;53.362;5.216;2023-04-09T11:44:16;47.65;;;32.15;;
54271;SDS011;40184;53.362;5.216;2023-04-09T11:46:41;40.10;;;31.75;;
54271;SDS011;40184;53.362;5.216;2023-04-09T11:49:08;44.90;;;33.33;;
54271;SDS011;40184;53.362;5.216;2023-04-09T11:51:34;43.15;;;32.78;;
54271;SDS011;40184;53.362;5.216;2023-04-09T11:54:06;46.65;;;34.97;;
54271;SDS011;40184;53.362;5.216;2023-04-09T11:56:34;46.38;;;32.83;;
54271;SDS011;40184;53.362;5.216;2023-04-09T11:59:01;40.78;;;32.05;;
54271;SDS011;40184;53.362;5.216;2023-04-09T12:01:30;43.30;;;33.00;;
54271;SDS011;40184;53.362;5.216;2023-04-09T12:03:57;50.15;;;36.10;;
54271;SDS011;40184;53.362;5.216;2023-04-09T12:06:24;38.65;;;31.27;;
54271;SDS011;40184;53.362;5.216;2023-04-09T12:08:57;44.20;;;34.33;;
54271;SDS011;40184;53.362;5.216;2023-04-09T12:11:30;41.22;;;32.78;;
54271;SDS011;40184;53.362;5.216;2023-04-09T12:13:59;46.55;;;33.55;;
54271;SDS011;40184;53.362;5.216;2023-04-09T12:16:28;40.67;;;30.98;;
54271;SDS011;40184;53.362;5.216;2023-04-09T12:19:07;36.88;;;30.83;;
54271;SDS011;40184;53.362;5.216;2023-04-09T12:21:48;39.72;;;31.05;;
54271;SDS011;40184;53.362;5.216;2023-04-09T12:24:16;41.33;;;33.53;;
54271;SDS011;40184;53.362;5.216;2023-04-09T12:26:44;39.53;;;31.27;;
54271;SDS011;40184;53.362;5.216;2023-04-09T12:29:11;38.10;;;30.73;;
54271;SDS011;40184;53.362;5.216;2023-04-09T12:31:38;38.88;;;30.73;;
54271;SDS011;40184;53.362;5.216;2023-04-09T12:34:04;38.85;;;30.98;;
54271;SDS011;40184;53.362;5.216;2023-04-09T12:36:29;43.60;;;32.17;;
54271;SDS011;40184;53.362;5.216;2023-04-09T12:38:55;40.10;;;33.10;;
54271;SDS011;40184;53.362;5.216;2023-04-09T12:41:21;37.30;;;28.90;;
54271;SDS011;40184;53.362;5.216;2023-04-09T12:43:46;36.83;;;28.88;;
54271;SDS011;40184;53.362;5.216;2023-04-09T12:46:13;36.45;;;29.95;;
54271;SDS011;40184;53.362;5.216;2023-04-09T12:48:38;37.45;;;29.15;;
54271;SDS011;40184;53.362;5.216;2023-04-09T12:51:04;34.97;;;28.65;;
54271;SDS011;40184;53.362;5.216;2023-04-09T12:53:30;36.50;;;28.35;;
54271;SDS011;40184;53.362;5.216;2023-04-09T12:55:56;37.45;;;27.98;;
54271;SDS011;40184;53.362;5.216;2023-04-09T12:58:22;35.25;;;28.52;;
54271;SDS011;40184;53.362;5.216;2023-04-09T13:00:48;37.67;;;28.85;;
54271;SDS011;40184;53.362;5.216;2023-04-09T13:03:14;33.08;;;28.00;;
54271;SDS011;40184;53.362;5.216;2023-04-09T13:05:43;38.78;;;28.67;;
54271;SDS011;40184;53.362;5.216;2023-04-09T13:08:08;39.75;;;29.48;;
54271;SDS011;40184;53.362;5.216;2023-04-09T13:10:34;36.25;;;28.55;;
54271;SDS011;40184;53.362;5.216;2023-04-09T13:13:01;38.30;;;29.80;;
54271;SDS011;40184;53.362;5.216;2023-04-09T13:15:26;34.30;;;26.77;;
54271;SDS011;40184;53.362;5.216;2023-04-09T13:17:52;35.97;;;26.45;;
54271;SDS011;40184;53.362;5.216;2023-04-09T13:20:18;34.35;;;27.10;;
54271;SDS011;40184;53.362;5.216;2023-04-09T13:22:44;34.97;;;26.73;;
54271;SDS011;40184;53.362;5.216;2023-04-09T13:25:13;33.88;;;25.77;;
54271;SDS011;40184;53.362;5.216;2023-04-09T13:27:39;33.30;;;26.02;;
54271;SDS011;40184;53.362;5.216;2023-04-09T13:30:05;40.95;;;27.38;;
54271;SDS011;40184;53.362;5.216;2023-04-09T13:32:32;28.98;;;24.48;;
54271;SDS011;40184;53.362;5.216;2023-04-09T13:34:57;32.28;;;25.95;;
54271;SDS011;40184;53.362;5.216;2023-04-09T13:37:23;32.05;;;26.80;;
54271;SDS011;40184;53.362;5.216;2023-04-09T13:39:49;30.27;;;25.52;;
54271;SDS011;40184;53.362;5.216;2023-04-09T13:42:15;31.98;;;27.00;;
54271;SDS011;40184;53.362;5.216;2023-04-09T13:44:41;30.20;;;25.52;;
54271;SDS011;40184;53.362;5.216;2023-04-09T13:47:12;33.58;;;27.48;;
54271;SDS011;40184;53.362;5.216;2023-04-09T13:49:40;33.97;;;25.92;;
54271;SDS011;40184;53.362;5.216;2023-04-09T13:52:06;31.08;;;26.00;;
54271;SDS011;40184;53.362;5.216;2023-04-09T13:54:32;31.35;;;26.42;;
54271;SDS011;40184;53.362;5.216;2023-04-09T13:56:58;32.80;;;25.23;;
54271;SDS011;40184;53.362;5.216;2023-04-09T13:59:24;30.30;;;25.60;;
54271;SDS011;40184;53.362;5.216;2023-04-09T14:01:50;35.13;;;25.90;;
54271;SDS011;40184;53.362;5.216;2023-04-09T14:04:16;28.13;;;23.80;;
54271;SDS011;40184;53.362;5.216;2023-04-09T14:06:43;31.25;;;25.85;;
54271;SDS011;40184;53.362;5.216;2023-04-09T14:09:09;31.27;;;26.58;;
54271;SDS011;40184;53.362;5.216;2023-04-09T14:11:35;30.77;;;25.88;;
54271;SDS011;40184;53.362;5.216;2023-04-09T14:14:01;29.98;;;25.33;;
54271;SDS011;40184;53.362;5.216;2023-04-09T14:16:26;29.13;;;25.42;;
54271;SDS011;40184;53.362;5.216;2023-04-09T14:18:54;29.05;;;25.20;;
54271;SDS011;40184;53.362;5.216;2023-04-09T14:21:20;31.67;;;25.30;;
54271;SDS011;40184;53.362;5.216;2023-04-09T14:23:46;30.70;;;24.20;;
54271;SDS011;40184;53.362;5.216;2023-04-09T14:26:11;29.73;;;25.42;;
54271;SDS011;40184;53.362;5.216;2023-04-09T14:28:37;28.65;;;25.42;;
54271;SDS011;40184;53.362;5.216;2023-04-09T14:31:03;29.05;;;25.95;;
54271;SDS011;40184;53.362;5.216;2023-04-09T14:33:29;30.65;;;26.63;;
54271;SDS011;40184;53.362;5.216;2023-04-09T14:35:55;33.13;;;26.75;;
54271;SDS011;40184;53.362;5.216;2023-04-09T14:38:21;36.72;;;28.00;;
54271;SDS011;40184;53.362;5.216;2023-04-09T14:40:50;33.65;;;27.23;;
54271;SDS011;40184;53.362;5.216;2023-04-09T14:43:16;29.70;;;26.50;;
54271;SDS011;40184;53.362;5.216;2023-04-09T14:45:42;31.90;;;26.83;;